sensor_id;sensor_type;location;lat;lon;timestamp;P1;durP1;ratioP1;P2;durP2;ratioP2
20855;SDS011;63058;49.424;8.420;2023-01-01T00:53:17;8.98;;;6.70;;
20855;SDS011;63058;49.424;8.420;2023-01-01T00:55:46;8.05;;;6.43;;
20855;SDS011;63058;49.424;8.420;2023-01-01T00:58:13;9.20;;;6.40;;
20855;SDS011;63058;49.424;8.420;2023-01-01T01:00:40;7.97;;;5.85;;
20855;SDS011;63058;49.424;8.420;2023-01-01T01:03:06;8.43;;;5.68;;
20855;SDS011;63058;49.424;8.420;2023-01-01T01:05:32;8.98;;;5.45;;
20855;SDS011;63058;49.424;8.420;2023-01-01T01:08:01;7.13;;;5.22;;
20855;SDS011;63058;49.424;8.420;2023-01-01T01:10:26;7.28;;;4.43;;
20855;SDS011;63058;49.424;8.420;2023-01-01T01:12:52;5.65;;;4.55;;
20855;SDS011;63058;49.424;8.420;2023-01-01T01:15:18;6.30;;;4.32;;
20855;SDS011;63058;49.424;8.420;2023-01-01T01:17:44;4.45;;;3.60;;
20855;SDS011;63058;49.424;8.420;2023-01-01T01:20:10;6.45;;;3.80;;
20855;SDS011;63058;49.424;8.420;2023-01-01T01:22:37;4.78;;;3.70;;
20855;SDS011;63058;49.424;8.420;2023-01-01T01:25:03;4.28;;;3.10;;
20855;SDS011;63058;49.424;8.420;2023-01-01T01:27:30;6.30;;;3.80;;
20855;SDS011;63058;49.424;8.420;2023-01-01T01:29:56;5.47;;;3.40;;
20855;SDS011;63058;49.424;8.420;2023-01-01T01:32:22;5.85;;;4.22;;
20855;SDS011;63058;49.424;8.420;2023-01-01T01:34:48;4.57;;;3.50;;
20855;SDS011;63058;49.424;8.420;2023-01-01T01:37:13;4.85;;;3.95;;
20855;SDS011;63058;49.424;8.420;2023-01-01T01:39:42;6.50;;;4.10;;
20855;SDS011;63058;49.424;8.420;2023-01-01T01:42:11;7.38;;;4.72;;
20855;SDS011;63058;49.424;8.420;2023-01-01T01:47:18;6.88;;;5.00;;
20855;SDS011;63058;49.424;8.420;2023-01-01T01:49:46;7.70;;;5.10;;
20855;SDS011;63058;49.424;8.420;2023-01-01T01:52:15;9.55;;;5.82;;
20855;SDS011;63058;49.424;8.420;2023-01-01T01:54:41;8.45;;;6.22;;
20855;SDS011;63058;49.424;8.420;2023-01-01T01:57:07;8.27;;;5.68;;
20855;SDS011;63058;49.424;8.420;2023-01-01T01:59:35;9.00;;;6.55;;
20855;SDS011;63058;49.424;8.420;2023-01-01T02:02:06;11.50;;;6.97;;
20855;SDS011;63058;49.424;8.420;2023-01-01T02:04:41;11.55;;;7.57;;
20855;SDS011;63058;49.424;8.420;2023-01-01T02:07:07;12.00;;;7.55;;
20855;SDS011;63058;49.424;8.420;2023-01-01T02:09:33;12.20;;;8.27;;
20855;SDS011;63058;49.424;8.420;2023-01-01T02:11:58;13.02;;;8.77;;
20855;SDS011;63058;49.424;8.420;2023-01-01T02:14:24;12.07;;;8.18;;
20855;SDS011;63058;49.424;8.420;2023-01-01T02:16:54;11.00;;;8.02;;
20855;SDS011;63058;49.424;8.420;2023-01-01T02:30:29;11.90;;;7.72;;
20855;SDS011;63058;49.424;8.420;2023-01-01T02:32:58;13.98;;;8.80;;
20855;SDS011;63058;49.424;8.420;2023-01-01T02:35:34;11.65;;;8.30;;
20855;SDS011;63058;49.424;8.420;2023-01-01T02:38:12;10.30;;;7.22;;
20855;SDS011;63058;49.424;8.420;2023-01-01T02:40:44;13.77;;;8.10;;
20855;SDS011;63058;49.424;8.420;2023-01-01T02:43:13;9.90;;;7.13;;
20855;SDS011;63058;49.424;8.420;2023-01-01T02:45:39;11.25;;;7.68;;
20855;SDS011;63058;49.424;8.420;2023-01-01T02:48:05;11.32;;;7.55;;
20855;SDS011;63058;49.424;8.420;2023-01-01T02:50:52;9.82;;;6.93;;
20855;SDS011;63058;49.424;8.420;2023-01-01T02:53:28;8.93;;;6.70;;
20855;SDS011;63058;49.424;8.420;2023-01-01T02:58:33;10.30;;;7.32;;
20855;SDS011;63058;49.424;8.420;2023-01-01T03:06:36;9.07;;;6.30;;
20855;SDS011;63058;49.424;8.420;2023-01-01T03:09:18;8.25;;;6.22;;
20855;SDS011;63058;49.424;8.420;2023-01-01T03:17:29;7.13;;;5.38;;
20855;SDS011;63058;49.424;8.420;2023-01-01T03:20:00;9.18;;;6.15;;
20855;SDS011;63058;49.424;8.420;2023-01-01T03:22:31;8.82;;;6.78;;
20855;SDS011;63058;49.424;8.420;2023-01-01T03:25:06;11.13;;;6.68;;
20855;SDS011;63058;49.424;8.420;2023-01-01T03:27:39;11.15;;;6.75;;
20855;SDS011;63058;49.424;8.420;2023-01-01T03:30:10;9.93;;;6.97;;
20855;SDS011;63058;49.424;8.420;2023-01-01T03:35:45;10.52;;;6.38;;
20855;SDS011;63058;49.424;8.420;2023-01-01T03:38:39;10.45;;;7.00;;
20855;SDS011;63058;49.424;8.420;2023-01-01T03:41:21;12.40;;;6.22;;
20855;SDS011;63058;49.424;8.420;2023-01-01T03:43:55;10.38;;;6.90;;
20855;SDS011;63058;49.424;8.420;2023-01-01T03:46:26;11.00;;;6.60;;
20855;SDS011;63058;49.424;8.420;2023-01-01T03:48:57;8.75;;;6.22;;
20855;SDS011;63058;49.424;8.420;2023-01-01T03:54:05;9.25;;;6.13;;
20855;SDS011;63058;49.424;8.420;2023-01-01T03:56:43;9.50;;;5.28;;
20855;SDS011;63058;49.424;8.420;2023-01-01T03:59:22;6.80;;;5.55;;
20855;SDS011;63058;49.424;8.420;2023-01-01T04:01:57;7.32;;;5.43;;
20855;SDS011;63058;49.424;8.420;2023-01-01T04:04:28;7.70;;;5.50;;
20855;SDS011;63058;49.424;8.420;2023-01-01T04:06:54;7.68;;;5.50;;
20855;SDS011;63058;49.424;8.420;2023-01-01T04:09:23;8.57;;;4.82;;
20855;SDS011;63058;49.424;8.420;2023-01-01T04:11:54;10.60;;;6.22;;
20855;SDS011;63058;49.424;8.420;2023-01-01T04:16:55;9.55;;;5.35;;
20855;SDS011;63058;49.424;8.420;2023-01-01T04:19:22;7.38;;;5.10;;
20855;SDS011;63058;49.424;8.420;2023-01-01T04:21:50;7.43;;;4.43;;
20855;SDS011;63058;49.424;8.420;2023-01-01T04:24:16;6.32;;;4.60;;
20855;SDS011;63058;49.424;8.420;2023-01-01T04:26:42;6.20;;;4.97;;
20855;SDS011;63058;49.424;8.420;2023-01-01T04:29:08;7.97;;;5.78;;
20855;SDS011;63058;49.424;8.420;2023-01-01T04:31:34;6.82;;;4.65;;
20855;SDS011;63058;49.424;8.420;2023-01-01T04:34:00;6.10;;;4.35;;
20855;SDS011;63058;49.424;8.420;2023-01-01T04:36:26;6.15;;;4.43;;
20855;SDS011;63058;49.424;8.420;2023-01-01T04:38:52;7.60;;;4.57;;
20855;SDS011;63058;49.424;8.420;2023-01-01T04:41:18;6.93;;;4.40;;
20855;SDS011;63058;49.424;8.420;2023-01-01T04:43:47;7.10;;;4.60;;
20855;SDS011;63058;49.424;8.420;2023-01-01T04:46:14;8.98;;;5.15;;
20855;SDS011;63058;49.424;8.420;2023-01-01T04:48:41;5.25;;;3.88;;
20855;SDS011;63058;49.424;8.420;2023-01-01T04:51:08;7.20;;;4.15;;
20855;SDS011;63058;49.424;8.420;2023-01-01T04:53:35;5.22;;;3.63;;
20855;SDS011;63058;49.424;8.420;2023-01-01T04:56:11;5.63;;;3.78;;
20855;SDS011;63058;49.424;8.420;2023-01-01T04:58:41;6.78;;;3.88;;
20855;SDS011;63058;49.424;8.420;2023-01-01T05:01:08;5.70;;;4.15;;
20855;SDS011;63058;49.424;8.420;2023-01-01T05:03:40;6.45;;;3.75;;
20855;SDS011;63058;49.424;8.420;2023-01-01T05:06:06;4.82;;;3.28;;
20855;SDS011;63058;49.424;8.420;2023-01-01T05:08:34;5.13;;;3.42;;
20855;SDS011;63058;49.424;8.420;2023-01-01T05:11:06;4.90;;;3.40;;
20855;SDS011;63058;49.424;8.420;2023-01-01T05:13:39;6.05;;;3.65;;
20855;SDS011;63058;49.424;8.420;2023-01-01T05:16:10;5.07;;;3.45;;
20855;SDS011;63058;49.424;8.420;2023-01-01T05:18:38;5.72;;;3.85;;
20855;SDS011;63058;49.424;8.420;2023-01-01T05:21:06;7.63;;;3.88;;
20855;SDS011;63058;49.424;8.420;2023-01-01T05:23:35;5.95;;;3.55;;
20855;SDS011;63058;49.424;8.420;2023-01-01T05:26:10;5.03;;;3.53;;
20855;SDS011;63058;49.424;8.420;2023-01-01T05:28:38;5.20;;;3.63;;
20855;SDS011;63058;49.424;8.420;2023-01-01T05:31:05;5.00;;;3.47;;
20855;SDS011;63058;49.424;8.420;2023-01-01T05:33:35;6.18;;;4.07;;
20855;SDS011;63058;49.424;8.420;2023-01-01T05:36:02;4.25;;;3.40;;
20855;SDS011;63058;49.424;8.420;2023-01-01T05:38:28;5.60;;;3.53;;
20855;SDS011;63058;49.424;8.420;2023-01-01T05:40:54;5.18;;;3.08;;
20855;SDS011;63058;49.424;8.420;2023-01-01T05:43:21;5.65;;;3.17;;
20855;SDS011;63058;49.424;8.420;2023-01-01T05:45:46;4.90;;;3.42;;
20855;SDS011;63058;49.424;8.420;2023-01-01T05:48:12;4.43;;;3.00;;
20855;SDS011;63058;49.424;8.420;2023-01-01T05:50:38;4.13;;;3.00;;
20855;SDS011;63058;49.424;8.420;2023-01-01T05:53:03;7.78;;;3.50;;
20855;SDS011;63058;49.424;8.420;2023-01-01T05:55:29;5.03;;;2.88;;
20855;SDS011;63058;49.424;8.420;2023-01-01T05:57:56;5.85;;;3.33;;
20855;SDS011;63058;49.424;8.420;2023-01-01T06:00:22;6.03;;;3.00;;
20855;SDS011;63058;49.424;8.420;2023-01-01T06:02:48;4.88;;;3.00;;
20855;SDS011;63058;49.424;8.420;2023-01-01T06:05:18;4.50;;;2.90;;
20855;SDS011;63058;49.424;8.420;2023-01-01T06:07:44;5.65;;;3.13;;
20855;SDS011;63058;49.424;8.420;2023-01-01T06:10:10;3.83;;;2.80;;
20855;SDS011;63058;49.424;8.420;2023-01-01T06:12:35;5.95;;;3.13;;
20855;SDS011;63058;49.424;8.420;2023-01-01T06:15:01;4.70;;;3.08;;
20855;SDS011;63058;49.424;8.420;2023-01-01T06:17:31;4.78;;;2.72;;
20855;SDS011;63058;49.424;8.420;2023-01-01T06:19:57;6.07;;;2.80;;
20855;SDS011;63058;49.424;8.420;2023-01-01T06:22:23;4.00;;;2.70;;
20855;SDS011;63058;49.424;8.420;2023-01-01T06:24:49;3.38;;;2.40;;
20855;SDS011;63058;49.424;8.420;2023-01-01T06:27:14;4.07;;;2.58;;
20855;SDS011;63058;49.424;8.420;2023-01-01T06:29:40;3.15;;;2.42;;
20855;SDS011;63058;49.424;8.420;2023-01-01T06:32:06;4.32;;;2.60;;
20855;SDS011;63058;49.424;8.420;2023-01-01T06:34:35;4.82;;;2.80;;
20855;SDS011;63058;49.424;8.420;2023-01-01T06:37:00;5.28;;;2.53;;
20855;SDS011;63058;49.424;8.420;2023-01-01T06:39:26;5.80;;;2.42;;
20855;SDS011;63058;49.424;8.420;2023-01-01T06:41:52;7.70;;;2.55;;
20855;SDS011;63058;49.424;8.420;2023-01-01T06:44:20;4.13;;;2.65;;
20855;SDS011;63058;49.424;8.420;2023-01-01T06:46:49;3.65;;;2.47;;
20855;SDS011;63058;49.424;8.420;2023-01-01T06:49:18;2.90;;;2.30;;
20855;SDS011;63058;49.424;8.420;2023-01-01T06:51:43;4.85;;;2.42;;
20855;SDS011;63058;49.424;8.420;2023-01-01T06:54:09;4.40;;;2.50;;
20855;SDS011;63058;49.424;8.420;2023-01-01T06:56:35;4.78;;;2.63;;
20855;SDS011;63058;49.424;8.420;2023-01-01T06:59:02;4.38;;;2.58;;
20855;SDS011;63058;49.424;8.420;2023-01-01T07:01:29;4.97;;;3.13;;
20855;SDS011;63058;49.424;8.420;2023-01-01T07:03:57;3.75;;;2.30;;
20855;SDS011;63058;49.424;8.420;2023-01-01T07:06:31;4.85;;;2.30;;
20855;SDS011;63058;49.424;8.420;2023-01-01T07:08:57;3.85;;;2.30;;
20855;SDS011;63058;49.424;8.420;2023-01-01T07:11:23;3.78;;;2.40;;
20855;SDS011;63058;49.424;8.420;2023-01-01T07:13:50;5.18;;;2.60;;
20855;SDS011;63058;49.424;8.420;2023-01-01T07:16:19;4.10;;;2.17;;
20855;SDS011;63058;49.424;8.420;2023-01-01T07:18:45;2.85;;;2.20;;
20855;SDS011;63058;49.424;8.420;2023-01-01T07:21:26;3.75;;;2.10;;
20855;SDS011;63058;49.424;8.420;2023-01-01T07:24:01;5.38;;;2.05;;
20855;SDS011;63058;49.424;8.420;2023-01-01T07:26:29;5.53;;;2.42;;
20855;SDS011;63058;49.424;8.420;2023-01-01T07:31:31;4.65;;;2.10;;
20855;SDS011;63058;49.424;8.420;2023-01-01T07:37:15;2.50;;;1.85;;
20855;SDS011;63058;49.424;8.420;2023-01-01T07:40:08;2.88;;;1.85;;
20855;SDS011;63058;49.424;8.420;2023-01-01T07:45:57;3.38;;;1.98;;
20855;SDS011;63058;49.424;8.420;2023-01-01T07:48:59;4.80;;;2.00;;
20855;SDS011;63058;49.424;8.420;2023-01-01T07:51:45;3.55;;;1.85;;
20855;SDS011;63058;49.424;8.420;2023-01-01T07:54:26;4.88;;;2.20;;
20855;SDS011;63058;49.424;8.420;2023-01-01T07:56:54;3.45;;;1.95;;
20855;SDS011;63058;49.424;8.420;2023-01-01T07:59:46;4.97;;;1.85;;
20855;SDS011;63058;49.424;8.420;2023-01-01T08:11:12;4.07;;;2.10;;
20855;SDS011;63058;49.424;8.420;2023-01-01T08:13:38;3.38;;;1.70;;
20855;SDS011;63058;49.424;8.420;2023-01-01T08:16:22;3.03;;;1.52;;
20855;SDS011;63058;49.424;8.420;2023-01-01T08:18:51;5.35;;;1.90;;
20855;SDS011;63058;49.424;8.420;2023-01-01T08:21:38;6.22;;;2.10;;
20855;SDS011;63058;49.424;8.420;2023-01-01T08:24:25;3.42;;;1.83;;
20855;SDS011;63058;49.424;8.420;2023-01-01T08:26:59;4.20;;;2.20;;
20855;SDS011;63058;49.424;8.420;2023-01-01T08:29:30;3.15;;;1.65;;
20855;SDS011;63058;49.424;8.420;2023-01-01T08:32:05;4.80;;;1.80;;
20855;SDS011;63058;49.424;8.420;2023-01-01T08:34:37;4.07;;;1.80;;
20855;SDS011;63058;49.424;8.420;2023-01-01T08:37:12;2.63;;;1.67;;
20855;SDS011;63058;49.424;8.420;2023-01-01T08:40:09;5.95;;;2.00;;
20855;SDS011;63058;49.424;8.420;2023-01-01T08:42:57;3.58;;;1.80;;
20855;SDS011;63058;49.424;8.420;2023-01-01T08:45:23;5.05;;;2.28;;
20855;SDS011;63058;49.424;8.420;2023-01-01T08:48:00;2.70;;;1.90;;
20855;SDS011;63058;49.424;8.420;2023-01-01T08:50:29;3.33;;;1.90;;
20855;SDS011;63058;49.424;8.420;2023-01-01T08:53:20;3.90;;;1.60;;
20855;SDS011;63058;49.424;8.420;2023-01-01T08:56:00;5.00;;;2.00;;
20855;SDS011;63058;49.424;8.420;2023-01-01T08:58:38;3.88;;;2.03;;
20855;SDS011;63058;49.424;8.420;2023-01-01T09:01:20;5.55;;;1.85;;
20855;SDS011;63058;49.424;8.420;2023-01-01T09:03:47;4.57;;;1.65;;
20855;SDS011;63058;49.424;8.420;2023-01-01T09:06:22;3.15;;;1.80;;
20855;SDS011;63058;49.424;8.420;2023-01-01T09:08:53;2.65;;;1.67;;
20855;SDS011;63058;49.424;8.420;2023-01-01T09:11:29;4.15;;;2.05;;
20855;SDS011;63058;49.424;8.420;2023-01-01T09:14:24;4.72;;;1.98;;
20855;SDS011;63058;49.424;8.420;2023-01-01T09:17:23;5.30;;;2.20;;
20855;SDS011;63058;49.424;8.420;2023-01-01T09:19:48;5.38;;;2.13;;
20855;SDS011;63058;49.424;8.420;2023-01-01T09:22:20;5.15;;;2.20;;
20855;SDS011;63058;49.424;8.420;2023-01-01T09:24:46;5.18;;;2.10;;
20855;SDS011;63058;49.424;8.420;2023-01-01T09:27:14;4.15;;;2.20;;
20855;SDS011;63058;49.424;8.420;2023-01-01T09:29:54;4.57;;;1.92;;
20855;SDS011;63058;49.424;8.420;2023-01-01T09:32:26;3.67;;;2.00;;
20855;SDS011;63058;49.424;8.420;2023-01-01T09:34:54;5.53;;;1.95;;
20855;SDS011;63058;49.424;8.420;2023-01-01T09:37:34;6.50;;;2.15;;
20855;SDS011;63058;49.424;8.420;2023-01-01T09:46:41;2.78;;;1.48;;
20855;SDS011;63058;49.424;8.420;2023-01-01T09:52:00;3.85;;;1.55;;
20855;SDS011;63058;49.424;8.420;2023-01-01T09:54:57;4.85;;;1.70;;
20855;SDS011;63058;49.424;8.420;2023-01-01T10:00:48;3.67;;;1.35;;
20855;SDS011;63058;49.424;8.420;2023-01-01T10:06:31;4.78;;;1.60;;
20855;SDS011;63058;49.424;8.420;2023-01-01T10:17:57;4.72;;;1.35;;
20855;SDS011;63058;49.424;8.420;2023-01-01T10:20:56;5.65;;;1.52;;
20855;SDS011;63058;49.424;8.420;2023-01-01T10:23:50;4.80;;;1.35;;
20855;SDS011;63058;49.424;8.420;2023-01-01T10:26:27;6.55;;;1.70;;
20855;SDS011;63058;49.424;8.420;2023-01-01T10:29:12;6.03;;;1.45;;
20855;SDS011;63058;49.424;8.420;2023-01-01T10:32:20;3.90;;;1.45;;
20855;SDS011;63058;49.424;8.420;2023-01-01T10:35:12;4.47;;;1.63;;
20855;SDS011;63058;49.424;8.420;2023-01-01T10:37:49;5.32;;;1.60;;
20855;SDS011;63058;49.424;8.420;2023-01-01T10:41:17;2.58;;;1.30;;
20855;SDS011;63058;49.424;8.420;2023-01-01T10:45:57;5.70;;;1.40;;
20855;SDS011;63058;49.424;8.420;2023-01-01T10:48:41;3.78;;;1.38;;
20855;SDS011;63058;49.424;8.420;2023-01-01T10:51:36;4.45;;;1.55;;
20855;SDS011;63058;49.424;8.420;2023-01-01T11:08:48;5.65;;;1.58;;
20855;SDS011;63058;49.424;8.420;2023-01-01T11:11:20;3.78;;;1.65;;
20855;SDS011;63058;49.424;8.420;2023-01-01T11:13:57;4.47;;;1.50;;
20855;SDS011;63058;49.424;8.420;2023-01-01T11:16:28;6.18;;;1.70;;
20855;SDS011;63058;49.424;8.420;2023-01-01T11:19:04;4.80;;;1.42;;
20855;SDS011;63058;49.424;8.420;2023-01-01T11:21:53;3.95;;;1.42;;
20855;SDS011;63058;49.424;8.420;2023-01-01T11:24:32;4.60;;;1.60;;
20855;SDS011;63058;49.424;8.420;2023-01-01T11:27:21;5.57;;;1.33;;
20855;SDS011;63058;49.424;8.420;2023-01-01T11:33:00;5.07;;;1.25;;
20855;SDS011;63058;49.424;8.420;2023-01-01T11:35:32;4.65;;;1.90;;
20855;SDS011;63058;49.424;8.420;2023-01-01T11:38:29;6.55;;;1.40;;
20855;SDS011;63058;49.424;8.420;2023-01-01T11:40:55;3.22;;;1.20;;
20855;SDS011;63058;49.424;8.420;2023-01-01T11:43:45;4.25;;;1.63;;
20855;SDS011;63058;49.424;8.420;2023-01-01T11:46:21;6.88;;;1.67;;
20855;SDS011;63058;49.424;8.420;2023-01-01T11:48:48;6.93;;;1.63;;
20855;SDS011;63058;49.424;8.420;2023-01-01T11:51:30;8.30;;;1.83;;
20855;SDS011;63058;49.424;8.420;2023-01-01T12:00:00;3.05;;;1.30;;
20855;SDS011;63058;49.424;8.420;2023-01-01T12:03:10;4.15;;;1.20;;
20855;SDS011;63058;49.424;8.420;2023-01-01T12:08:44;5.30;;;1.63;;
20855;SDS011;63058;49.424;8.420;2023-01-01T12:12:01;3.75;;;1.42;;
20855;SDS011;63058;49.424;8.420;2023-01-01T12:14:43;4.40;;;1.42;;
20855;SDS011;63058;49.424;8.420;2023-01-01T12:23:06;4.03;;;1.95;;
20855;SDS011;63058;49.424;8.420;2023-01-01T12:29:28;5.20;;;1.27;;
20855;SDS011;63058;49.424;8.420;2023-01-01T13:02:02;5.07;;;2.05;;
20855;SDS011;63058;49.424;8.420;2023-01-01T13:04:43;4.53;;;1.40;;
20855;SDS011;63058;49.424;8.420;2023-01-01T13:07:35;3.75;;;1.38;;
20855;SDS011;63058;49.424;8.420;2023-01-01T13:13:22;4.20;;;1.48;;
20855;SDS011;63058;49.424;8.420;2023-01-01T13:15:55;3.45;;;1.60;;
20855;SDS011;63058;49.424;8.420;2023-01-01T13:18:26;6.20;;;1.65;;
20855;SDS011;63058;49.424;8.420;2023-01-01T13:20:56;3.95;;;1.80;;
20855;SDS011;63058;49.424;8.420;2023-01-01T13:42:41;5.18;;;2.17;;
20855;SDS011;63058;49.424;8.420;2023-01-01T13:45:26;4.63;;;2.00;;
20855;SDS011;63058;49.424;8.420;2023-01-01T14:02:47;8.55;;;2.47;;
20855;SDS011;63058;49.424;8.420;2023-01-01T14:05:36;3.92;;;2.15;;
20855;SDS011;63058;49.424;8.420;2023-01-01T14:08:23;4.65;;;2.35;;
20855;SDS011;63058;49.424;8.420;2023-01-01T14:11:01;5.72;;;2.50;;
20855;SDS011;63058;49.424;8.420;2023-01-01T14:13:45;3.60;;;2.20;;
20855;SDS011;63058;49.424;8.420;2023-01-01T14:16:14;4.18;;;1.95;;
20855;SDS011;63058;49.424;8.420;2023-01-01T14:19:15;4.30;;;1.88;;
20855;SDS011;63058;49.424;8.420;2023-01-01T14:21:50;5.47;;;2.40;;
20855;SDS011;63058;49.424;8.420;2023-01-01T14:24:19;6.03;;;2.90;;
20855;SDS011;63058;49.424;8.420;2023-01-01T14:26:52;5.40;;;3.03;;
20855;SDS011;63058;49.424;8.420;2023-01-01T14:29:41;3.65;;;2.95;;
20855;SDS011;63058;49.424;8.420;2023-01-01T14:32:20;4.95;;;3.33;;
20855;SDS011;63058;49.424;8.420;2023-01-01T14:35:15;6.70;;;4.13;;
20855;SDS011;63058;49.424;8.420;2023-01-01T14:37:47;5.25;;;3.92;;
20855;SDS011;63058;49.424;8.420;2023-01-01T14:40:45;7.75;;;4.07;;
20855;SDS011;63058;49.424;8.420;2023-01-01T14:43:23;5.65;;;3.90;;
20855;SDS011;63058;49.424;8.420;2023-01-01T14:46:00;10.13;;;4.43;;
20855;SDS011;63058;49.424;8.420;2023-01-01T14:48:37;6.00;;;3.97;;
20855;SDS011;63058;49.424;8.420;2023-01-01T14:51:31;7.85;;;4.32;;
20855;SDS011;63058;49.424;8.420;2023-01-01T14:54:20;9.68;;;3.55;;
20855;SDS011;63058;49.424;8.420;2023-01-01T14:56:59;5.38;;;3.15;;
20855;SDS011;63058;49.424;8.420;2023-01-01T14:59:42;7.38;;;3.53;;
20855;SDS011;63058;49.424;8.420;2023-01-01T15:02:18;5.40;;;3.15;;
20855;SDS011;63058;49.424;8.420;2023-01-01T15:04:49;5.75;;;3.30;;
20855;SDS011;63058;49.424;8.420;2023-01-01T15:10:01;7.45;;;3.33;;
20855;SDS011;63058;49.424;8.420;2023-01-01T15:12:34;6.20;;;3.15;;
20855;SDS011;63058;49.424;8.420;2023-01-01T15:15:01;7.38;;;3.05;;
20855;SDS011;63058;49.424;8.420;2023-01-01T15:17:53;6.00;;;2.97;;
20855;SDS011;63058;49.424;8.420;2023-01-01T15:20:22;5.05;;;3.13;;
20855;SDS011;63058;49.424;8.420;2023-01-01T15:22:48;4.25;;;2.55;;
20855;SDS011;63058;49.424;8.420;2023-01-01T15:25:15;4.43;;;2.63;;
20855;SDS011;63058;49.424;8.420;2023-01-01T15:27:50;6.28;;;3.50;;
20855;SDS011;63058;49.424;8.420;2023-01-01T15:30:31;7.22;;;3.70;;
20855;SDS011;63058;49.424;8.420;2023-01-01T15:33:12;5.90;;;3.08;;
20855;SDS011;63058;49.424;8.420;2023-01-01T15:35:40;10.90;;;3.55;;
20855;SDS011;63058;49.424;8.420;2023-01-01T15:38:34;7.18;;;3.28;;
20855;SDS011;63058;49.424;8.420;2023-01-01T15:44:30;4.30;;;3.15;;
20855;SDS011;63058;49.424;8.420;2023-01-01T15:47:18;6.53;;;3.55;;
20855;SDS011;63058;49.424;8.420;2023-01-01T15:49:50;5.22;;;2.80;;
20855;SDS011;63058;49.424;8.420;2023-01-01T15:52:56;5.45;;;3.08;;
20855;SDS011;63058;49.424;8.420;2023-01-01T15:55:34;7.60;;;3.33;;
20855;SDS011;63058;49.424;8.420;2023-01-01T16:01:00;5.88;;;3.22;;
20855;SDS011;63058;49.424;8.420;2023-01-01T16:03:33;4.15;;;2.75;;
20855;SDS011;63058;49.424;8.420;2023-01-01T16:06:04;7.70;;;3.65;;
20855;SDS011;63058;49.424;8.420;2023-01-01T16:08:33;5.43;;;2.92;;
20855;SDS011;63058;49.424;8.420;2023-01-01T16:10:59;4.95;;;2.97;;
20855;SDS011;63058;49.424;8.420;2023-01-01T16:13:26;4.20;;;2.78;;
20855;SDS011;63058;49.424;8.420;2023-01-01T16:15:52;6.32;;;2.78;;
20855;SDS011;63058;49.424;8.420;2023-01-01T16:18:32;5.43;;;2.70;;
20855;SDS011;63058;49.424;8.420;2023-01-01T16:21:20;5.03;;;2.70;;
20855;SDS011;63058;49.424;8.420;2023-01-01T16:23:48;7.75;;;3.03;;
20855;SDS011;63058;49.424;8.420;2023-01-01T16:26:17;4.22;;;2.88;;
20855;SDS011;63058;49.424;8.420;2023-01-01T16:28:45;6.40;;;3.70;;
20855;SDS011;63058;49.424;8.420;2023-01-01T16:31:25;5.65;;;3.70;;
20855;SDS011;63058;49.424;8.420;2023-01-01T16:34:11;7.22;;;3.47;;
20855;SDS011;63058;49.424;8.420;2023-01-01T16:36:40;4.95;;;3.47;;
20855;SDS011;63058;49.424;8.420;2023-01-01T16:39:07;7.47;;;4.38;;
20855;SDS011;63058;49.424;8.420;2023-01-01T16:41:43;8.70;;;3.92;;
20855;SDS011;63058;49.424;8.420;2023-01-01T16:44:14;7.00;;;4.18;;
20855;SDS011;63058;49.424;8.420;2023-01-01T16:46:40;8.38;;;4.20;;
20855;SDS011;63058;49.424;8.420;2023-01-01T16:49:09;10.98;;;6.10;;
20855;SDS011;63058;49.424;8.420;2023-01-01T16:51:38;10.48;;;5.63;;
20855;SDS011;63058;49.424;8.420;2023-01-01T16:54:05;11.77;;;6.72;;
20855;SDS011;63058;49.424;8.420;2023-01-01T16:56:31;9.73;;;6.68;;
20855;SDS011;63058;49.424;8.420;2023-01-01T16:58:56;9.93;;;6.05;;
20855;SDS011;63058;49.424;8.420;2023-01-01T17:01:27;7.70;;;4.55;;
20855;SDS011;63058;49.424;8.420;2023-01-01T17:03:54;7.13;;;4.82;;
20855;SDS011;63058;49.424;8.420;2023-01-01T17:06:21;5.85;;;3.67;;
20855;SDS011;63058;49.424;8.420;2023-01-01T17:08:48;6.18;;;3.45;;
20855;SDS011;63058;49.424;8.420;2023-01-01T17:11:18;8.07;;;3.63;;
20855;SDS011;63058;49.424;8.420;2023-01-01T17:13:48;6.28;;;3.80;;
20855;SDS011;63058;49.424;8.420;2023-01-01T17:16:19;7.10;;;3.70;;
20855;SDS011;63058;49.424;8.420;2023-01-01T17:18:50;7.93;;;3.70;;
20855;SDS011;63058;49.424;8.420;2023-01-01T17:21:16;9.95;;;4.05;;
20855;SDS011;63058;49.424;8.420;2023-01-01T17:23:48;6.47;;;3.38;;
20855;SDS011;63058;49.424;8.420;2023-01-01T17:26:15;6.60;;;3.83;;
20855;SDS011;63058;49.424;8.420;2023-01-01T17:28:43;6.75;;;4.00;;
20855;SDS011;63058;49.424;8.420;2023-01-01T17:31:21;7.45;;;4.95;;
20855;SDS011;63058;49.424;8.420;2023-01-01T17:33:49;8.93;;;4.05;;
20855;SDS011;63058;49.424;8.420;2023-01-01T17:36:16;9.10;;;4.82;;
20855;SDS011;63058;49.424;8.420;2023-01-01T17:38:42;6.45;;;4.00;;
20855;SDS011;63058;49.424;8.420;2023-01-01T17:41:13;9.38;;;5.53;;
20855;SDS011;63058;49.424;8.420;2023-01-01T17:43:40;7.55;;;4.80;;
20855;SDS011;63058;49.424;8.420;2023-01-01T17:46:13;7.82;;;4.95;;
20855;SDS011;63058;49.424;8.420;2023-01-01T17:48:46;10.50;;;5.40;;
20855;SDS011;63058;49.424;8.420;2023-01-01T17:51:12;9.98;;;5.28;;
20855;SDS011;63058;49.424;8.420;2023-01-01T17:53:39;8.15;;;5.57;;
20855;SDS011;63058;49.424;8.420;2023-01-01T17:56:09;7.43;;;4.63;;
20855;SDS011;63058;49.424;8.420;2023-01-01T17:58:39;7.18;;;4.88;;
20855;SDS011;63058;49.424;8.420;2023-01-01T18:03:47;8.57;;;4.28;;
20855;SDS011;63058;49.424;8.420;2023-01-01T18:06:14;9.05;;;4.63;;
20855;SDS011;63058;49.424;8.420;2023-01-01T18:08:40;9.13;;;4.50;;
20855;SDS011;63058;49.424;8.420;2023-01-01T18:11:07;6.80;;;4.70;;
20855;SDS011;63058;49.424;8.420;2023-01-01T18:13:34;6.22;;;4.03;;
20855;SDS011;63058;49.424;8.420;2023-01-01T18:16:10;5.80;;;4.28;;
20855;SDS011;63058;49.424;8.420;2023-01-01T18:18:39;8.55;;;4.50;;
20855;SDS011;63058;49.424;8.420;2023-01-01T18:21:06;10.35;;;4.47;;
20855;SDS011;63058;49.424;8.420;2023-01-01T18:23:47;5.60;;;3.83;;
20855;SDS011;63058;49.424;8.420;2023-01-01T18:26:14;7.25;;;4.18;;
20855;SDS011;63058;49.424;8.420;2023-01-01T18:28:49;9.40;;;4.20;;
20855;SDS011;63058;49.424;8.420;2023-01-01T18:31:19;7.65;;;3.75;;
20855;SDS011;63058;49.424;8.420;2023-01-01T18:33:49;8.40;;;4.82;;
20855;SDS011;63058;49.424;8.420;2023-01-01T18:36:19;7.18;;;4.50;;
20855;SDS011;63058;49.424;8.420;2023-01-01T18:44:30;7.38;;;3.90;;
20855;SDS011;63058;49.424;8.420;2023-01-01T18:49:58;8.80;;;3.92;;
20855;SDS011;63058;49.424;8.420;2023-01-01T18:52:43;6.47;;;3.40;;
20855;SDS011;63058;49.424;8.420;2023-01-01T18:55:12;7.20;;;3.67;;
20855;SDS011;63058;49.424;8.420;2023-01-01T18:58:11;5.53;;;3.55;;
20855;SDS011;63058;49.424;8.420;2023-01-01T19:00:41;6.45;;;4.15;;
20855;SDS011;63058;49.424;8.420;2023-01-01T19:03:27;10.50;;;4.95;;
20855;SDS011;63058;49.424;8.420;2023-01-01T19:05:56;9.85;;;5.63;;
20855;SDS011;63058;49.424;8.420;2023-01-01T19:08:25;11.93;;;6.20;;
20855;SDS011;63058;49.424;8.420;2023-01-01T19:10:56;12.88;;;7.20;;
20855;SDS011;63058;49.424;8.420;2023-01-01T19:16:01;10.93;;;5.32;;
20855;SDS011;63058;49.424;8.420;2023-01-01T19:18:39;6.35;;;4.20;;
20855;SDS011;63058;49.424;8.420;2023-01-01T19:23:35;8.35;;;4.60;;
20855;SDS011;63058;49.424;8.420;2023-01-01T19:26:23;14.25;;;4.57;;
20855;SDS011;63058;49.424;8.420;2023-01-01T19:29:21;7.40;;;4.25;;
20855;SDS011;63058;49.424;8.420;2023-01-01T19:31:50;6.53;;;4.18;;
20855;SDS011;63058;49.424;8.420;2023-01-01T19:34:29;9.32;;;4.13;;
20855;SDS011;63058;49.424;8.420;2023-01-01T19:37:02;6.68;;;3.83;;
20855;SDS011;63058;49.424;8.420;2023-01-01T19:39:29;7.05;;;3.92;;
20855;SDS011;63058;49.424;8.420;2023-01-01T19:41:56;6.85;;;3.83;;
20855;SDS011;63058;49.424;8.420;2023-01-01T19:44:30;7.38;;;3.95;;